Time;durP1;ratioP1;P1;durP2;ratioP2;P2;SDS_P1;SDS_P2;PMS_P1;PMS_P2;Temp;Humidity;BMP_temperature;BMP_pressure;BME280_temperature;BME280_humidity;BME280_pressure;Samples;Min_cycle;Max_cycle;Signal;HPM_P1;HPM_P2
2022/04/21 00:00:18;;;;;;;8.77;3.47;;;10.10;95.40;;;;;;5016142;28;20022;-82
2022/04/21 00:02:44;;;;;;;12.30;3.67;;;10.10;95.50;;;;;;5009684;28;20187;-82
2022/04/21 00:05:11;;;;;;;8.65;3.80;;;10.10;95.70;;;;;;5010816;28;20107;-82
2022/04/21 00:07:37;;;;;;;9.20;3.45;;;10.10;95.80;;;;;;5008638;28;20025;-82
2022/04/21 00:10:04;;;;;;;10.30;4.07;;;10.10;95.70;;;;;;5008049;28;20134;-82
2022/04/21 00:12:29;;;;;;;10.27;3.80;;;10.10;95.90;;;;;;5007187;28;20116;-82
2022/04/21 00:14:55;;;;;;;7.68;3.65;;;10.00;96.40;;;;;;5009531;28;20449;-82
2022/04/21 00:17:21;;;;;;;10.90;4.10;;;10.00;96.60;;;;;;5008663;28;20473;-82
2022/04/21 00:19:46;;;;;;;8.23;3.90;;;10.00;96.70;;;;;;5011823;28;20036;-81
2022/04/21 00:24:56;;;;;;;6.53;3.28;;;9.90;96.70;;;;;;5010147;28;20029;-82
2022/04/21 00:27:21;;;;;;;9.73;4.10;;;9.80;97.40;;;;;;5009451;28;20029;-82
2022/04/21 00:29:47;;;;;;;9.68;3.13;;;9.90;97.40;;;;;;5003628;28;20041;-82
2022/04/21 00:32:13;;;;;;;7.93;3.70;;;9.90;97.40;;;;;;5009709;28;20104;-82
2022/04/21 00:34:39;;;;;;;18.20;3.95;;;9.80;97.30;;;;;;5014083;28;20136;-82
2022/04/21 00:37:05;;;;;;;8.32;3.50;;;9.80;97.70;;;;;;5014241;28;20037;-81
2022/04/21 00:39:31;;;;;;;7.03;3.55;;;9.80;98.00;;;;;;5002685;28;20053;-81
2022/04/21 00:42:01;;;;;;;8.77;3.47;;;9.80;98.20;;;;;;5009780;28;20030;-82
2022/04/21 00:44:27;;;;;;;10.00;3.60;;;9.80;98.10;;;;;;5013508;28;20029;-81
2022/04/21 00:46:55;;;;;;;10.40;3.63;;;9.80;98.20;;;;;;5009035;28;20033;-83
2022/04/21 00:49:21;;;;;;;13.35;3.95;;;9.70;97.90;;;;;;5009823;28;20101;-81
2022/04/21 00:51:48;;;;;;;6.32;3.67;;;9.60;99.00;;;;;;5007038;28;20112;-82
2022/04/21 00:54:14;;;;;;;8.48;3.70;;;9.70;99.10;;;;;;5007471;28;20080;-81
2022/04/21 00:56:42;;;;;;;9.77;3.83;;;9.70;99.30;;;;;;5009661;28;20026;-82
2022/04/21 00:59:10;;;;;;;9.00;3.92;;;9.70;98.60;;;;;;5007544;28;20033;-81
2022/04/21 01:04:22;;;;;;;13.48;3.50;;;9.70;98.80;;;;;;5010612;28;20033;-82
2022/04/21 01:06:47;;;;;;;12.48;3.95;;;9.70;99.20;;;;;;5007615;28;20022;-82
2022/04/21 01:09:12;;;;;;;10.88;3.50;;;9.60;99.50;;;;;;5006694;28;20117;-81
2022/04/21 01:11:39;;;;;;;12.20;3.85;;;9.70;99.70;;;;;;5008589;28;20041;-82
2022/04/21 01:14:04;;;;;;;9.27;3.38;;;9.60;99.90;;;;;;5002479;28;20038;-82
2022/04/21 01:16:30;;;;;;;13.50;3.92;;;9.60;99.90;;;;;;5007507;28;20033;-82
2022/04/21 01:18:56;;;;;;;6.63;2.80;;;9.60;99.90;;;;;;5006810;28;20409;-82
2022/04/21 01:24:29;;;;;;;8.52;3.30;;;9.50;99.90;;;;;;5008413;28;20033;-83
2022/04/21 01:27:03;;;;;;;10.35;3.83;;;9.50;99.90;;;;;;5005969;28;20105;-83
2022/04/21 01:29:42;;;;;;;9.88;3.28;;;9.50;99.90;;;;;;5009077;28;20077;-83
2022/04/21 01:32:07;;;;;;;8.77;3.30;;;9.50;99.90;;;;;;5006343;28;20030;-83
2022/04/21 01:34:33;;;;;;;10.52;3.33;;;9.40;99.90;;;;;;5007573;28;20028;-83
2022/04/21 01:42:27;;;;;;;7.00;3.15;;;9.50;99.90;;;;;;5007638;28;20064;-82
2022/04/21 01:44:52;;;;;;;11.40;3.90;;;9.50;99.90;;;;;;5008932;28;20489;-82
2022/04/21 01:47:18;;;;;;;9.07;3.78;;;9.50;99.90;;;;;;5006862;28;20072;-82
2022/04/21 01:49:43;;;;;;;11.30;3.58;;;9.50;99.90;;;;;;5013828;28;20087;-82
2022/04/21 01:52:09;;;;;;;12.60;3.80;;;9.50;99.90;;;;;;5009252;28;20026;-82
2022/04/21 01:54:34;;;;;;;8.20;3.55;;;9.50;99.90;;;;;;5007494;28;20469;-82
2022/04/21 01:57:00;;;;;;;9.40;3.25;;;9.50;99.90;;;;;;5005836;28;20025;-82
2022/04/21 01:59:25;;;;;;;10.90;3.67;;;9.50;99.90;;;;;;5005346;28;20037;-82
2022/04/21 02:01:51;;;;;;;11.23;3.35;;;9.60;99.90;;;;;;5007328;28;20030;-82
2022/04/21 02:04:16;;;;;;;11.27;3.63;;;9.50;99.90;;;;;;5007620;28;20026;-82
2022/04/21 02:06:41;;;;;;;7.78;3.13;;;9.50;99.90;;;;;;5004819;28;20030;-82
2022/04/21 02:09:07;;;;;;;11.68;3.95;;;9.50;99.90;;;;;;5009158;28;20029;-81
2022/04/21 02:11:32;;;;;;;10.25;3.22;;;9.50;99.90;;;;;;5017339;28;20100;-82
2022/04/21 02:13:58;;;;;;;9.07;4.20;;;9.50;99.90;;;;;;5011439;28;20037;-81
2022/04/21 02:16:23;;;;;;;11.77;3.88;;;9.40;99.90;;;;;;5011402;28;20076;-82
2022/04/21 02:18:49;;;;;;;15.85;3.92;;;9.50;99.90;;;;;;5011484;28;20022;-82
2022/04/21 02:21:14;;;;;;;6.68;3.60;;;9.50;99.90;;;;;;5011732;28;20514;-82
2022/04/21 02:23:40;;;;;;;10.73;4.05;;;9.50;99.90;;;;;;5022474;28;20033;-81
2022/04/21 02:26:05;;;;;;;8.77;3.65;;;9.50;99.90;;;;;;5011142;28;20064;-82
2022/04/21 02:28:31;;;;;;;12.05;3.88;;;9.50;99.90;;;;;;5011564;28;20021;-82
2022/04/21 02:30:56;;;;;;;10.43;3.90;;;9.50;99.90;;;;;;5018194;28;20022;-81
2022/04/21 02:33:21;;;;;;;12.63;3.85;;;9.50;99.90;;;;;;5012711;28;20495;-82
2022/04/21 02:35:47;;;;;;;9.55;3.88;;;9.40;99.90;;;;;;5013770;28;20069;-82
2022/04/21 02:38:13;;;;;;;9.45;4.22;;;9.40;99.90;;;;;;5011534;28;20029;-82
2022/04/21 02:40:38;;;;;;;9.52;3.72;;;9.40;99.90;;;;;;5014906;28;20032;-82
2022/04/21 02:43:05;;;;;;;15.02;4.22;;;9.40;99.90;;;;;;5019282;28;20524;-81
2022/04/21 02:45:30;;;;;;;9.68;3.70;;;9.40;99.90;;;;;;5008684;28;20044;-82
2022/04/21 02:47:56;;;;;;;10.25;3.50;;;9.40;99.90;;;;;;5011267;28;20026;-82
2022/04/21 02:50:21;;;;;;;11.65;4.22;;;9.40;99.90;;;;;;5008976;28;20438;-81
2022/04/21 02:52:47;;;;;;;11.35;3.95;;;9.50;99.90;;;;;;5009741;28;20026;-81
2022/04/21 02:57:59;;;;;;;10.82;3.70;;;9.50;99.90;;;;;;5014756;28;20041;-82
2022/04/21 03:00:25;;;;;;;14.73;4.20;;;9.50;99.90;;;;;;5007747;28;20544;-82
2022/04/21 03:02:50;;;;;;;8.48;3.60;;;9.50;99.90;;;;;;5010974;28;20140;-81
2022/04/21 03:05:16;;;;;;;10.93;4.50;;;9.50;99.90;;;;;;5009865;28;20113;-81
2022/04/21 03:07:42;;;;;;;9.68;3.78;;;9.40;99.90;;;;;;5007946;28;20022;-81
2022/04/21 03:10:08;;;;;;;11.38;3.90;;;9.40;99.90;;;;;;5009634;28;20046;-82
2022/04/21 03:12:33;;;;;;;11.60;4.50;;;9.40;99.90;;;;;;5012147;28;20121;-82
2022/04/21 03:14:59;;;;;;;8.77;3.70;;;9.30;99.90;;;;;;5008640;28;20117;-82
2022/04/21 03:17:25;;;;;;;10.85;4.20;;;9.40;99.90;;;;;;5008555;28;20038;-79
2022/04/21 03:19:51;;;;;;;7.55;3.67;;;9.30;99.90;;;;;;5006648;28;20516;-82
2022/04/21 03:25:06;;;;;;;8.65;4.40;;;9.40;99.90;;;;;;5009541;28;20084;-82
2022/04/21 03:27:32;;;;;;;11.05;3.75;;;9.30;99.90;;;;;;5011143;28;20558;-90
2022/04/21 03:30:02;;;;;;;13.68;4.03;;;9.30;99.90;;;;;;5013863;28;20504;-79
2022/04/21 03:32:29;;;;;;;8.70;4.15;;;9.30;99.90;;;;;;5011101;28;20034;-77
2022/04/21 03:34:54;;;;;;;9.43;4.45;;;9.30;99.90;;;;;;5007431;28;20448;-84
2022/04/21 03:37:21;;;;;;;14.15;4.70;;;9.30;99.90;;;;;;5010497;28;20021;-84
2022/04/21 03:39:46;;;;;;;9.07;3.92;;;9.30;99.90;;;;;;5004512;28;20120;-80
2022/04/21 03:42:20;;;;;;;11.50;4.47;;;9.30;99.90;;;;;;5008205;28;20564;-77
2022/04/21 03:44:47;;;;;;;9.88;4.20;;;9.30;99.90;;;;;;5011438;28;20026;-80
2022/04/21 03:47:13;;;;;;;12.40;4.95;;;9.30;99.90;;;;;;5015777;28;20051;-86
2022/04/21 03:49:39;;;;;;;9.20;3.92;;;9.20;99.90;;;;;;5010562;28;20025;-84
2022/04/21 03:52:04;;;;;;;10.90;4.32;;;9.20;99.90;;;;;;5008994;28;20095;-83
2022/04/21 03:54:30;;;;;;;9.63;4.60;;;9.20;99.90;;;;;;5008449;28;20489;-84
2022/04/21 03:56:55;;;;;;;9.93;4.85;;;9.20;99.90;;;;;;5011019;28;20037;-86
2022/04/21 03:59:23;;;;;;;10.48;4.20;;;9.30;99.90;;;;;;5008407;28;20065;-84
2022/04/21 04:01:50;;;;;;;12.80;4.28;;;9.10;99.90;;;;;;5011376;28;20063;-81
2022/04/21 04:04:16;;;;;;;12.27;4.43;;;9.20;99.90;;;;;;5009174;28;20048;-80
2022/04/21 04:12:11;;;;;;;10.90;4.35;;;9.30;99.90;;;;;;5009564;28;20157;-80
2022/04/21 04:14:37;;;;;;;11.63;5.00;;;9.20;99.90;;;;;;5009385;28;20080;-80
2022/04/21 04:17:05;;;;;;;12.05;4.72;;;9.20;99.90;;;;;;5009546;28;20026;-80
2022/04/21 04:19:31;;;;;;;12.63;4.60;;;9.20;99.90;;;;;;5007067;28;20765;-80
2022/04/21 04:21:56;;;;;;;7.38;4.55;;;9.20;99.90;;;;;;5013376;28;20037;-80
2022/04/21 04:24:21;;;;;;;11.40;4.38;;;9.20;99.90;;;;;;5007711;28;20425;-81
2022/04/21 04:26:48;;;;;;;11.13;4.18;;;9.10;99.90;;;;;;5009303;28;20099;-81
2022/04/21 04:29:14;;;;;;;11.48;4.43;;;9.20;99.90;;;;;;5008150;28;20033;-79
2022/04/21 04:31:40;;;;;;;9.60;4.28;;;9.30;99.90;;;;;;5009903;28;20395;-80
2022/04/21 04:34:08;;;;;;;9.05;4.07;;;9.30;99.90;;;;;;5011576;28;20132;-84
2022/04/21 04:36:34;;;;;;;12.27;4.60;;;9.20;99.90;;;;;;5009086;28;20037;-85
2022/04/21 04:38:59;;;;;;;11.77;4.50;;;9.30;99.90;;;;;;5010642;28;20057;-77
2022/04/21 04:44:09;;;;;;;10.07;4.32;;;9.20;99.90;;;;;;5018045;28;20034;-90
2022/04/21 04:46:34;;;;;;;19.77;5.10;;;9.20;99.90;;;;;;5012182;28;20105;-88
2022/04/21 04:49:01;;;;;;;14.05;4.72;;;9.30;99.90;;;;;;5008993;28;20385;-89
2022/04/21 04:51:27;;;;;;;14.05;4.82;;;9.30;99.90;;;;;;5002502;28;20123;-85
2022/04/21 04:53:55;;;;;;;12.35;5.05;;;9.40;99.90;;;;;;5009706;28;20620;-88
2022/04/21 04:56:22;;;;;;;10.63;4.75;;;9.30;99.90;;;;;;5005340;28;20034;-84
2022/04/21 04:58:48;;;;;;;8.95;4.53;;;9.40;99.90;;;;;;5020867;28;20037;-86
2022/04/21 05:01:26;;;;;;;10.95;4.68;;;9.30;99.90;;;;;;5008419;28;20080;-86
2022/04/21 05:04:02;;;;;;;13.25;4.95;;;9.30;99.90;;;;;;5009550;28;20392;-84
2022/04/21 05:06:28;;;;;;;10.70;4.68;;;9.30;99.90;;;;;;5011486;28;20044;-89
2022/04/21 05:08:56;;;;;;;14.32;5.05;;;9.40;99.90;;;;;;5009061;28;20026;-89
2022/04/21 05:11:21;;;;;;;11.60;4.78;;;9.40;99.90;;;;;;5011828;28;20038;-82
2022/04/21 05:13:47;;;;;;;8.90;4.10;;;9.30;99.90;;;;;;5010642;28;20022;-81
2022/04/21 05:16:13;;;;;;;10.10;4.65;;;9.30;99.90;;;;;;5006426;28;20025;-81
2022/04/21 05:18:39;;;;;;;12.68;4.78;;;9.40;99.90;;;;;;5008510;28;20030;-81
2022/04/21 05:21:05;;;;;;;8.60;4.47;;;9.40;99.90;;;;;;5013413;28;20026;-82
2022/04/21 05:23:34;;;;;;;9.60;4.10;;;9.40;99.90;;;;;;5006757;28;20037;-82
2022/04/21 05:26:00;;;;;;;10.38;4.82;;;9.40;99.90;;;;;;5013012;28;20492;-83
2022/04/21 05:28:26;;;;;;;13.38;4.88;;;9.50;99.90;;;;;;5011353;28;20516;-82
2022/04/21 05:31:01;;;;;;;14.98;5.68;;;9.50;99.90;;;;;;5006859;28;20029;-82
2022/04/21 05:33:29;;;;;;;11.27;4.63;;;9.50;99.90;;;;;;5017254;28;20113;-83
2022/04/21 05:35:57;;;;;;;11.63;4.57;;;9.50;99.90;;;;;;5011275;28;20033;-83
2022/04/21 05:38:24;;;;;;;9.27;4.32;;;9.50;99.90;;;;;;5008624;28;20030;-83
2022/04/21 05:40:50;;;;;;;15.57;4.90;;;9.60;99.90;;;;;;5016183;28;20041;-83
2022/04/21 05:43:20;;;;;;;18.48;6.97;;;9.60;99.90;;;;;;5009094;28;20064;-83
2022/04/21 05:45:47;;;;;;;15.68;8.20;;;9.60;99.90;;;;;;5007461;28;20030;-83
2022/04/21 05:48:14;;;;;;;11.65;5.00;;;9.60;99.90;;;;;;5007248;28;20026;-83
2022/04/21 05:50:44;;;;;;;10.27;4.70;;;9.60;99.90;;;;;;5006380;28;20524;-84
2022/04/21 05:53:14;;;;;;;13.45;5.47;;;9.70;99.90;;;;;;5006260;28;20038;-77
2022/04/21 05:55:40;;;;;;;16.55;5.40;;;9.70;99.90;;;;;;5007277;28;20108;-77
2022/04/21 05:58:06;;;;;;;13.50;4.88;;;9.70;99.90;;;;;;5007402;28;20623;-78
2022/04/21 06:00:31;;;;;;;12.48;4.35;;;9.70;99.90;;;;;;5018325;28;20087;-77
2022/04/21 06:02:57;;;;;;;10.05;4.38;;;9.70;99.90;;;;;;5028281;28;20044;-77
2022/04/21 06:05:23;;;;;;;7.70;5.18;;;9.80;99.90;;;;;;5018752;28;20239;-77
2022/04/21 06:07:48;;;;;;;27.45;16.45;;;9.80;99.90;;;;;;5009451;28;20117;-77
2022/04/21 06:10:14;;;;;;;19.38;10.07;;;9.80;99.90;;;;;;5006259;28;20041;-77
2022/04/21 06:12:39;;;;;;;10.63;4.85;;;9.90;99.90;;;;;;5007450;28;20022;-77
2022/04/21 06:15:05;;;;;;;9.65;4.32;;;9.90;99.90;;;;;;5009962;28;20030;-77
2022/04/21 06:17:31;;;;;;;15.73;5.00;;;10.00;99.90;;;;;;5007637;28;20057;-77
2022/04/21 06:19:56;;;;;;;11.63;4.35;;;10.00;99.90;;;;;;5005703;28;20026;-78
2022/04/21 06:22:22;;;;;;;11.55;4.50;;;10.00;99.90;;;;;;5005723;28;20030;-79
2022/04/21 06:24:47;;;;;;;13.18;4.45;;;10.10;99.90;;;;;;5003078;28;20037;-81
2022/04/21 06:27:13;;;;;;;11.88;5.30;;;10.10;99.90;;;;;;5002691;28;20469;-85
2022/04/21 06:29:38;;;;;;;11.30;6.30;;;10.10;99.90;;;;;;5013820;28;20044;-81
2022/04/21 06:32:04;;;;;;;12.18;5.28;;;10.20;99.90;;;;;;5019743;28;20037;-82
2022/04/21 06:34:32;;;;;;;9.68;4.55;;;10.30;99.90;;;;;;5012216;28;20562;-79
2022/04/21 06:37:00;;;;;;;12.93;5.18;;;10.40;99.90;;;;;;5007186;28;20027;-83
2022/04/21 06:39:26;;;;;;;15.32;4.90;;;10.40;99.90;;;;;;5017246;28;20030;-84
2022/04/21 06:41:51;;;;;;;9.75;4.50;;;10.60;99.90;;;;;;5010045;28;20392;-80
2022/04/21 06:49:45;;;;;;;8.93;3.90;;;10.90;99.90;;;;;;5008302;28;20033;-81
2022/04/21 06:52:10;;;;;;;11.80;4.82;;;10.90;99.90;;;;;;5011449;28;20230;-84
2022/04/21 06:54:36;;;;;;;16.98;4.70;;;10.90;99.90;;;;;;5007576;28;20053;-82
2022/04/21 06:57:01;;;;;;;11.95;4.80;;;11.00;99.90;;;;;;5005716;28;20037;-83
2022/04/21 06:59:27;;;;;;;12.70;4.30;;;11.10;99.90;;;;;;5006167;28;20022;-83
2022/04/21 07:01:52;;;;;;;11.98;4.53;;;11.10;99.90;;;;;;5017329;28;20041;-84
2022/04/21 07:04:18;;;;;;;13.07;4.30;;;10.90;99.90;;;;;;5008771;28;20093;-85
2022/04/21 07:06:44;;;;;;;22.02;12.65;;;10.80;99.90;;;;;;5012121;28;20577;-84
2022/04/21 07:09:09;;;;;;;16.00;5.25;;;10.70;99.90;;;;;;5009337;28;20053;-86
2022/04/21 07:11:37;;;;;;;10.60;4.32;;;10.70;99.90;;;;;;5012238;28;20045;-86
2022/04/21 07:14:02;;;;;;;12.00;4.38;;;10.70;99.90;;;;;;5008851;28;20410;-87
2022/04/21 07:16:28;;;;;;;14.73;4.68;;;10.80;99.90;;;;;;5003216;28;20045;-86
2022/04/21 07:18:54;;;;;;;14.35;5.15;;;10.80;99.90;;;;;;5010226;28;20535;-85
2022/04/21 07:21:19;;;;;;;17.65;5.40;;;10.90;99.90;;;;;;5011738;28;20022;-86
2022/04/21 07:23:45;;;;;;;13.10;4.45;;;11.00;99.90;;;;;;5023955;28;20450;-86
2022/04/21 07:26:10;;;;;;;16.50;4.68;;;11.00;99.90;;;;;;5023197;28;20022;-87
2022/04/21 07:28:36;;;;;;;12.00;4.95;;;11.00;99.90;;;;;;5011641;28;20030;-86
2022/04/21 07:31:02;;;;;;;11.02;4.57;;;11.10;99.90;;;;;;5011835;28;20097;-86
2022/04/21 07:33:27;;;;;;;10.70;4.72;;;11.30;99.90;;;;;;5023564;28;20014;-86
2022/04/21 07:35:53;;;;;;;14.77;4.63;;;11.40;99.90;;;;;;5022704;28;20109;-86
2022/04/21 07:38:18;;;;;;;13.15;4.55;;;11.50;99.90;;;;;;5011668;28;20481;-87
2022/04/21 07:40:47;;;;;;;14.00;4.30;;;11.60;99.90;;;;;;5028289;28;20029;-86
2022/04/21 07:43:12;;;;;;;13.73;4.75;;;11.50;99.90;;;;;;5018513;28;20026;-86
2022/04/21 07:45:39;;;;;;;10.32;4.57;;;11.50;99.90;;;;;;5010732;28;20033;-87
2022/04/21 07:48:05;;;;;;;13.10;4.70;;;11.60;99.90;;;;;;5010799;28;20037;-86
2022/04/21 07:50:30;;;;;;;11.88;4.72;;;11.60;99.90;;;;;;5028157;28;20105;-86
2022/04/21 07:53:14;;;;;;;12.05;4.45;;;11.50;99.90;;;;;;5029559;28;20034;-86
2022/04/21 07:55:48;;;;;;;14.20;4.55;;;11.60;99.90;;;;;;5030487;28;20041;-86
2022/04/21 07:58:14;;;;;;;12.75;4.68;;;11.70;99.90;;;;;;5011548;28;20041;-87
2022/04/21 08:00:44;;;;;;;9.73;4.32;;;11.70;99.90;;;;;;5010657;28;20030;-86
2022/04/21 08:03:10;;;;;;;7.80;4.30;;;11.40;99.90;;;;;;5010055;28;20087;-86
2022/04/21 08:05:36;;;;;;;8.77;4.03;;;11.20;99.90;;;;;;5010681;28;20022;-86
2022/04/21 08:08:03;;;;;;;14.70;5.00;;;11.20;99.90;;;;;;5012563;28;20052;-86
2022/04/21 08:10:29;;;;;;;12.27;4.70;;;11.30;99.90;;;;;;5029914;28;20041;-87
2022/04/21 08:12:59;;;;;;;10.75;4.43;;;11.50;99.90;;;;;;5029375;28;20057;-84
2022/04/21 08:15:32;;;;;;;12.02;4.63;;;11.60;99.90;;;;;;5011621;28;20038;-86
2022/04/21 08:18:00;;;;;;;13.20;5.07;;;11.60;99.90;;;;;;5013873;28;20025;-84
2022/04/21 08:20:28;;;;;;;13.57;4.63;;;11.60;99.90;;;;;;5019529;28;20033;-85
2022/04/21 08:22:54;;;;;;;8.05;4.45;;;11.60;99.90;;;;;;5008492;28;20137;-84
2022/04/21 08:33:32;;;;;;;13.70;4.95;;;11.60;99.90;;;;;;5008191;28;20037;-87
2022/04/21 08:35:58;;;;;;;10.48;4.47;;;11.70;99.90;;;;;;5008771;28;20030;-86
2022/04/21 08:38:25;;;;;;;13.63;4.93;;;11.60;99.90;;;;;;5008118;28;20500;-86
2022/04/21 08:40:56;;;;;;;10.25;5.25;;;11.60;99.90;;;;;;5009637;28;20032;-84
2022/04/21 08:43:23;;;;;;;7.90;4.53;;;11.90;99.90;;;;;;5009811;28;20026;-84
2022/04/21 08:45:53;;;;;;;9.68;4.97;;;12.00;99.90;;;;;;5028967;28;20512;-86
2022/04/21 08:48:20;;;;;;;10.98;4.95;;;12.20;99.90;;;;;;5029800;28;20037;-84
2022/04/21 08:50:46;;;;;;;8.90;5.15;;;12.10;99.90;;;;;;5015841;28;20033;-86
2022/04/21 08:53:15;;;;;;;9.05;4.70;;;12.00;99.90;;;;;;5009415;28;20063;-84
2022/04/21 08:55:42;;;;;;;10.23;5.18;;;12.20;99.90;;;;;;5009586;28;20034;-85
2022/04/21 08:58:07;;;;;;;11.95;5.53;;;12.10;99.90;;;;;;5009296;28;20029;-85
2022/04/21 09:00:33;;;;;;;9.57;5.03;;;12.30;99.90;;;;;;5009162;28;20026;-84
2022/04/21 09:03:03;;;;;;;14.27;5.18;;;12.30;99.90;;;;;;5008752;28;20701;-85
2022/04/21 09:05:29;;;;;;;10.10;5.50;;;12.30;99.90;;;;;;5009942;28;20220;-85
2022/04/21 09:07:57;;;;;;;11.63;6.47;;;12.40;99.90;;;;;;5009870;28;20037;-84
2022/04/21 09:10:23;;;;;;;14.10;5.63;;;12.20;99.90;;;;;;5009464;28;20057;-85
2022/04/21 09:12:57;;;;;;;9.10;5.60;;;12.60;99.90;;;;;;5020455;28;22466;-84
2022/04/21 09:15:27;;;;;;;12.50;5.30;;;13.00;99.90;;;;;;5009315;28;20044;-84
2022/04/21 09:17:56;;;;;;;15.40;5.13;;;13.40;99.90;;;;;;5009702;28;20100;-84
2022/04/21 09:20:24;;;;;;;11.32;5.65;;;13.60;99.90;;;;;;5009865;28;20109;-84
2022/04/21 09:22:54;;;;;;;11.80;5.03;;;13.60;99.90;;;;;;5009603;28;20084;-85
2022/04/21 09:25:20;;;;;;;13.85;5.10;;;13.70;99.90;;;;;;5009764;28;20034;-87
2022/04/21 09:27:50;;;;;;;8.65;5.00;;;13.80;99.90;;;;;;5009721;28;20024;-85
2022/04/21 09:30:16;;;;;;;13.77;5.13;;;13.50;99.80;;;;;;5009133;28;20171;-84
2022/04/21 09:32:53;;;;;;;7.78;4.93;;;13.50;99.90;;;;;;5009219;28;20056;-85
2022/04/21 09:35:20;;;;;;;9.15;5.00;;;13.80;99.90;;;;;;5009287;28;20037;-85
2022/04/21 09:37:50;;;;;;;9.07;4.85;;;14.10;97.70;;;;;;5009530;28;20485;-85
2022/04/21 09:40:21;;;;;;;13.68;5.75;;;14.30;96.00;;;;;;5009327;28;20065;-85
2022/04/21 09:43:03;;;;;;;20.42;5.97;;;14.60;95.70;;;;;;5008797;28;20030;-86
2022/04/21 09:48:32;;;;;;;9.52;5.10;;;14.50;95.40;;;;;;5009355;28;20033;-86
2022/04/21 09:51:17;;;;;;;10.05;5.43;;;14.70;94.20;;;;;;5009362;28;20018;-85
2022/04/21 09:53:58;;;;;;;10.18;5.07;;;14.60;93.00;;;;;;5008300;28;20493;-86
2022/04/21 09:56:31;;;;;;;11.35;6.07;;;13.80;94.90;;;;;;5009907;28;20113;-86
2022/04/21 09:58:57;;;;;;;13.75;6.03;;;13.70;96.30;;;;;;5009298;28;20489;-85
2022/04/21 10:01:23;;;;;;;13.30;6.15;;;13.50;97.30;;;;;;5008676;28;20227;-85
2022/04/21 10:03:48;;;;;;;8.27;5.90;;;13.30;98.80;;;;;;5007532;28;20080;-85
2022/04/21 10:06:16;;;;;;;11.57;6.10;;;13.30;98.40;;;;;;5008904;28;20385;-85
2022/04/21 10:08:43;;;;;;;13.65;6.35;;;13.30;99.60;;;;;;5008670;28;20030;-85
2022/04/21 10:11:09;;;;;;;12.18;6.95;;;13.20;98.80;;;;;;5008317;28;20046;-84
2022/04/21 10:13:36;;;;;;;13.75;6.53;;;13.40;98.80;;;;;;5008261;28;20087;-84
2022/04/21 10:16:02;;;;;;;10.80;5.68;;;13.10;99.00;;;;;;5009366;28;20440;-85
2022/04/21 10:18:28;;;;;;;12.90;6.07;;;13.00;98.70;;;;;;5008944;28;20093;-85
2022/04/21 10:20:57;;;;;;;11.00;6.20;;;13.30;99.40;;;;;;5008938;28;20110;-84
2022/04/21 10:23:26;;;;;;;10.20;6.05;;;13.00;99.20;;;;;;5008589;28;20121;-85
2022/04/21 10:26:00;;;;;;;10.68;5.90;;;13.30;99.90;;;;;;5006623;28;20026;-86
2022/04/21 10:28:35;;;;;;;10.90;6.43;;;13.60;97.80;;;;;;5008699;28;20444;-85
2022/04/21 10:31:28;;;;;;;11.43;6.03;;;13.90;96.30;;;;;;5008834;28;20491;-85
2022/04/21 10:33:58;;;;;;;10.70;6.88;;;14.00;97.10;;;;;;5008749;28;20681;-84
2022/04/21 10:36:41;;;;;;;11.90;6.80;;;14.00;95.90;;;;;;5012172;28;20599;-84
2022/04/21 10:39:25;;;;;;;12.15;6.93;;;13.90;95.50;;;;;;5011427;28;20667;-84
2022/04/21 10:42:14;;;;;;;10.40;6.22;;;14.30;95.60;;;;;;5012074;28;20025;-85
2022/04/21 10:44:58;;;;;;;9.88;6.50;;;14.50;93.60;;;;;;5002283;28;20101;-87
2022/04/21 10:47:31;;;;;;;13.75;7.07;;;14.40;94.20;;;;;;5011666;28;20030;-86
2022/04/21 10:50:12;;;;;;;8.60;7.05;;;14.60;94.30;;;;;;5012246;28;20065;-86
2022/04/21 10:58:37;;;;;;;12.15;7.15;;;15.30;93.00;;;;;;5011188;28;20028;-86
2022/04/21 11:01:11;;;;;;;11.13;6.72;;;14.50;92.70;;;;;;5011945;28;20534;-85
2022/04/21 11:03:37;;;;;;;13.07;7.63;;;14.70;93.20;;;;;;5011478;28;20038;-84
2022/04/21 11:06:07;;;;;;;10.00;6.63;;;15.40;92.90;;;;;;5011621;28;20033;-85
2022/04/21 11:08:33;;;;;;;10.98;7.20;;;15.70;90.50;;;;;;5011002;28;21617;-86
2022/04/21 11:10:59;;;;;;;10.63;6.28;;;15.90;88.50;;;;;;5011590;28;20037;-86
2022/04/21 11:14:03;;;;;;;8.07;6.03;;;15.90;88.30;;;;;;5011249;28;20540;-86
2022/04/21 11:16:40;;;;;;;9.57;7.03;;;15.70;88.40;;;;;;5010658;28;20497;-86
2022/04/21 11:19:35;;;;;;;9.98;7.18;;;15.20;90.60;;;;;;5024495;28;20125;-86
2022/04/21 11:22:12;;;;;;;12.85;6.40;;;14.70;91.80;;;;;;5030825;28;20397;-84
2022/04/21 11:24:55;;;;;;;12.27;6.68;;;14.90;92.70;;;;;;5030743;28;20072;-85
2022/04/21 11:27:25;;;;;;;9.75;6.57;;;15.00;91.50;;;;;;5010024;28;20092;-86
2022/04/21 11:29:50;;;;;;;8.85;5.88;;;15.30;92.40;;;;;;5011907;28;20464;-85
2022/04/21 11:32:17;;;;;;;9.88;6.13;;;15.50;89.00;;;;;;5024091;28;20026;-85
2022/04/21 11:35:00;;;;;;;13.70;6.32;;;15.40;90.10;;;;;;5010934;28;20041;-85
2022/04/21 11:37:48;;;;;;;13.77;7.15;;;15.10;91.10;;;;;;5010586;28;20026;-84
2022/04/21 11:40:21;;;;;;;10.50;6.40;;;14.40;92.70;;;;;;5012044;28;20026;-86
2022/04/21 11:42:49;;;;;;;8.23;6.00;;;13.90;94.40;;;;;;5011510;28;20026;-85
2022/04/21 11:45:26;;;;;;;9.27;6.63;;;13.70;97.00;;;;;;5010806;28;20022;-85
2022/04/21 11:47:53;;;;;;;11.23;6.40;;;13.50;97.10;;;;;;5010456;28;20037;-85
2022/04/21 11:50:29;;;;;;;8.20;6.07;;;13.70;97.40;;;;;;5010614;28;20021;-84
2022/04/21 11:52:56;;;;;;;12.98;6.65;;;13.70;98.00;;;;;;5014835;28;20032;-84
2022/04/21 11:55:28;;;;;;;10.60;6.28;;;13.70;98.40;;;;;;5022019;28;20025;-80
2022/04/21 11:57:55;;;;;;;11.85;6.30;;;13.40;98.40;;;;;;5014752;28;20021;-82
2022/04/21 12:08:44;;;;;;;10.95;6.10;;;14.00;97.10;;;;;;5012005;28;20488;-87
2022/04/21 12:11:10;;;;;;;10.27;6.10;;;14.20;97.20;;;;;;5014409;28;20050;-86
2022/04/21 12:13:36;;;;;;;11.02;6.82;;;14.20;96.50;;;;;;5006600;28;20034;-84
2022/04/21 12:16:02;;;;;;;9.40;5.88;;;14.00;96.60;;;;;;5009318;28;20852;-82
2022/04/21 12:18:43;;;;;;;9.48;5.78;;;13.90;97.10;;;;;;5010386;28;20116;-79
2022/04/21 12:21:09;;;;;;;7.82;5.80;;;14.10;96.90;;;;;;5019270;28;20037;-82
2022/04/21 12:23:34;;;;;;;10.15;5.72;;;14.30;96.50;;;;;;5021028;28;20060;-81
2022/04/21 12:26:00;;;;;;;10.68;6.13;;;14.30;96.70;;;;;;5012650;28;20034;-80
2022/04/21 12:28:25;;;;;;;10.27;5.63;;;14.30;96.40;;;;;;5030079;28;20035;-81
2022/04/21 12:30:51;;;;;;;11.50;6.25;;;14.50;96.70;;;;;;5026309;28;20029;-77
2022/04/21 12:33:17;;;;;;;9.15;5.45;;;14.20;96.20;;;;;;5020278;28;20030;-80
2022/04/21 12:35:49;;;;;;;7.28;5.65;;;14.10;97.10;;;;;;5006372;28;20052;-85
2022/04/21 12:41:00;;;;;;;11.63;5.93;;;14.20;96.20;;;;;;5014378;28;20044;-86
2022/04/21 12:43:30;;;;;;;9.48;5.18;;;14.40;96.70;;;;;;5013758;28;20096;-83
2022/04/21 12:45:57;;;;;;;9.32;5.80;;;14.40;95.70;;;;;;5022791;28;20038;-85
2022/04/21 12:48:27;;;;;;;8.98;5.85;;;14.30;96.70;;;;;;5025434;28;20034;-86
2022/04/21 12:50:54;;;;;;;9.98;5.75;;;14.10;97.60;;;;;;5016830;28;20055;-87
2022/04/21 12:53:28;;;;;;;9.80;6.20;;;13.80;98.20;;;;;;5030014;28;20017;-84
2022/04/21 12:55:55;;;;;;;10.18;6.05;;;13.90;98.80;;;;;;5012784;28;20389;-80
2022/04/21 12:58:30;;;;;;;12.95;6.20;;;13.60;99.70;;;;;;5007486;28;20026;-76
2022/04/21 13:00:55;;;;;;;7.72;5.10;;;13.40;99.90;;;;;;5010593;28;20501;-79
2022/04/21 13:03:21;;;;;;;7.30;4.97;;;13.50;99.90;;;;;;5010998;28;20057;-77
2022/04/21 13:05:52;;;;;;;8.52;5.32;;;13.50;99.90;;;;;;5008585;28;20108;-76
2022/04/21 13:08:18;;;;;;;8.90;5.38;;;13.40;99.90;;;;;;5016686;28;20096;-80
2022/04/21 13:10:44;;;;;;;9.70;5.65;;;13.50;99.90;;;;;;5016626;28;20409;-82
2022/04/21 13:13:09;;;;;;;6.72;5.35;;;13.40;99.90;;;;;;5009906;28;20029;-90
2022/04/21 13:15:35;;;;;;;7.32;5.50;;;13.50;99.90;;;;;;5010329;28;20175;-76
2022/04/21 13:18:01;;;;;;;8.93;5.60;;;13.50;99.90;;;;;;5008896;28;20037;-75
2022/04/21 13:23:10;;;;;;;7.88;5.55;;;13.60;99.90;;;;;;5007963;28;20103;-77
2022/04/21 13:25:36;;;;;;;9.00;5.68;;;13.80;99.90;;;;;;5014662;28;20025;-84
2022/04/21 13:28:01;;;;;;;8.93;5.32;;;13.90;99.90;;;;;;5011889;28;20029;-82
2022/04/21 13:30:28;;;;;;;9.30;5.30;;;14.00;99.90;;;;;;5021361;28;20049;-81
2022/04/21 13:35:40;;;;;;;9.77;5.70;;;14.00;99.90;;;;;;5009095;28;20061;-79
2022/04/21 13:38:06;;;;;;;7.22;5.75;;;14.20;99.90;;;;;;5011228;28;20369;-79
2022/04/21 13:40:31;;;;;;;8.82;5.97;;;14.30;99.90;;;;;;5021860;28;20037;-79
2022/04/21 13:42:57;;;;;;;8.77;6.10;;;14.20;99.90;;;;;;5006409;28;20100;-79
2022/04/21 13:45:22;;;;;;;9.65;5.22;;;14.30;99.90;;;;;;5007965;28;20037;-80
2022/04/21 13:47:48;;;;;;;8.80;6.00;;;14.30;99.90;;;;;;5009507;28;20097;-79
2022/04/21 13:50:13;;;;;;;9.07;5.68;;;14.30;99.90;;;;;;5009844;28;20026;-79
2022/04/21 13:52:41;;;;;;;7.93;5.63;;;14.10;99.90;;;;;;5008960;28;20049;-79
2022/04/21 13:55:07;;;;;;;8.32;5.47;;;13.90;99.90;;;;;;5009406;28;20029;-79